Time;durP1;ratioP1;P1;durP2;ratioP2;P2;SDS_P1;SDS_P2;PMS_P1;PMS_P2;Temp;Humidity;BMP_temperature;BMP_pressure;BME280_temperature;BME280_humidity;BME280_pressure;Samples;Min_cycle;Max_cycle;Signal;HPM_P1;HPM_P2
2022/04/18 00:00:22;;;;;;;15.55;9.63;;;9.70;93.60;;;;;;5144542;27;20568;-43
2022/04/18 00:02:47;;;;;;;20.23;10.52;;;9.70;93.90;;;;;;5154269;27;20033;-44
2022/04/18 00:05:13;;;;;;;15.13;10.20;;;9.70;93.90;;;;;;5144406;27;20041;-46
2022/04/18 00:07:39;;;;;;;15.32;9.73;;;9.60;93.90;;;;;;5133762;27;20031;-43
2022/04/18 00:10:05;;;;;;;17.05;10.10;;;9.60;94.10;;;;;;5137868;27;20123;-45
2022/04/18 00:12:31;;;;;;;18.67;10.52;;;9.60;94.60;;;;;;5139119;27;20033;-46
2022/04/18 00:14:57;;;;;;;20.77;10.93;;;9.50;94.10;;;;;;5145553;27;20050;-45
2022/04/18 00:17:23;;;;;;;17.55;10.27;;;9.50;94.30;;;;;;5137762;27;20051;-45
2022/04/18 00:19:48;;;;;;;18.02;10.75;;;9.50;94.80;;;;;;5141644;27;20042;-42
2022/04/18 00:22:14;;;;;;;18.95;11.38;;;9.40;94.60;;;;;;5154134;27;20056;-41
2022/04/18 00:24:40;;;;;;;19.33;10.77;;;9.40;94.70;;;;;;5153784;27;20501;-43
2022/04/18 00:27:05;;;;;;;18.13;10.60;;;9.40;94.90;;;;;;5130674;27;20047;-46
2022/04/18 00:29:31;;;;;;;18.77;11.27;;;9.30;94.70;;;;;;5129971;27;20044;-43
2022/04/18 00:31:57;;;;;;;17.67;10.70;;;9.30;95.40;;;;;;5130809;27;20478;-47
2022/04/18 00:34:23;;;;;;;18.00;11.32;;;9.20;95.30;;;;;;5135879;27;20038;-43
2022/04/18 00:36:48;;;;;;;19.20;11.35;;;9.20;95.40;;;;;;5131171;27;20027;-42
2022/04/18 00:39:14;;;;;;;18.10;11.07;;;9.30;95.60;;;;;;5130722;27;20081;-45
2022/04/18 00:41:40;;;;;;;19.63;11.85;;;9.10;95.90;;;;;;5135441;27;20042;-44
2022/04/18 00:44:05;;;;;;;17.52;11.40;;;9.10;95.60;;;;;;5143149;27;20030;-46
2022/04/18 00:46:31;;;;;;;18.13;11.45;;;9.10;95.90;;;;;;5135263;27;20042;-45
2022/04/18 00:48:57;;;;;;;19.83;11.63;;;9.00;95.90;;;;;;5115382;27;20046;-42
2022/04/18 00:51:26;;;;;;;18.45;11.35;;;9.00;96.00;;;;;;5145777;27;20034;-43
2022/04/18 00:53:57;;;;;;;18.13;10.95;;;9.00;96.10;;;;;;5136991;27;20087;-45
2022/04/18 00:56:24;;;;;;;18.52;10.73;;;8.90;96.60;;;;;;5138323;27;20039;-44
2022/04/18 00:58:50;;;;;;;21.65;11.25;;;8.90;96.60;;;;;;5133861;27;20031;-47
2022/04/18 01:01:17;;;;;;;19.65;11.15;;;8.90;96.80;;;;;;5132251;27;20043;-46
2022/04/18 01:03:43;;;;;;;16.63;11.57;;;8.80;96.80;;;;;;5141940;27;20078;-46
2022/04/18 01:06:10;;;;;;;17.67;11.20;;;8.80;96.70;;;;;;5134250;27;20035;-45
2022/04/18 01:08:36;;;;;;;19.60;12.30;;;8.80;96.80;;;;;;5152453;27;20037;-47
2022/04/18 01:11:02;;;;;;;22.08;12.07;;;8.70;97.30;;;;;;5152582;27;20117;-44
2022/04/18 01:13:28;;;;;;;21.00;12.43;;;8.70;96.60;;;;;;5152963;27;20041;-46
2022/04/18 01:15:55;;;;;;;21.65;12.27;;;8.60;96.80;;;;;;5152750;27;20035;-46
2022/04/18 01:18:21;;;;;;;20.33;12.13;;;8.70;96.60;;;;;;5152940;27;20106;-44
2022/04/18 01:20:47;;;;;;;18.90;12.05;;;8.60;96.60;;;;;;5153109;27;20091;-44
2022/04/18 01:23:13;;;;;;;20.13;13.02;;;8.70;96.20;;;;;;5152733;27;20045;-43
2022/04/18 01:31:08;;;;;;;18.15;12.05;;;8.60;95.90;;;;;;5152888;27;20083;-46
2022/04/18 01:33:33;;;;;;;21.98;12.98;;;8.50;95.70;;;;;;5152665;27;20388;-43
2022/04/18 01:35:59;;;;;;;20.58;12.73;;;8.50;96.00;;;;;;5138738;27;20035;-45
2022/04/18 01:38:25;;;;;;;21.88;12.63;;;8.50;95.70;;;;;;5131782;27;20035;-43
2022/04/18 01:40:51;;;;;;;19.27;12.32;;;8.50;95.40;;;;;;5141474;27;20115;-46
2022/04/18 01:43:17;;;;;;;20.38;12.70;;;8.40;95.50;;;;;;5152723;27;20041;-43
2022/04/18 01:45:43;;;;;;;19.45;12.70;;;8.40;95.30;;;;;;5142287;27;20035;-44
2022/04/18 01:48:09;;;;;;;20.45;12.57;;;8.40;95.60;;;;;;5146314;27;20151;-42
2022/04/18 01:50:34;;;;;;;24.50;13.77;;;8.40;95.10;;;;;;5131520;27;20087;-44
2022/04/18 01:53:00;;;;;;;22.17;12.98;;;8.40;95.40;;;;;;5131433;27;20031;-45
2022/04/18 01:55:26;;;;;;;20.95;13.20;;;8.30;95.20;;;;;;5131329;27;20031;-45
2022/04/18 01:57:51;;;;;;;23.73;14.25;;;8.40;94.90;;;;;;5144628;27;20485;-45
2022/04/18 02:00:17;;;;;;;20.05;13.27;;;8.30;95.30;;;;;;5146822;27;20027;-44
2022/04/18 02:02:43;;;;;;;20.83;13.77;;;8.30;95.30;;;;;;5152081;27;20592;-43
2022/04/18 02:05:09;;;;;;;23.38;14.00;;;8.30;95.00;;;;;;5152028;27;20038;-45
2022/04/18 02:07:35;;;;;;;22.95;14.40;;;8.30;95.50;;;;;;5151977;27;20038;-45
2022/04/18 02:10:02;;;;;;;22.25;14.02;;;8.20;95.40;;;;;;5151793;27;20046;-44
2022/04/18 02:12:28;;;;;;;26.45;14.70;;;8.20;96.00;;;;;;5151898;27;20034;-43
2022/04/18 02:14:54;;;;;;;24.05;13.80;;;8.20;95.20;;;;;;5151516;27;20589;-44
2022/04/18 02:17:19;;;;;;;22.80;14.75;;;8.20;95.30;;;;;;5151745;27;20130;-43
2022/04/18 02:19:46;;;;;;;23.25;14.82;;;8.10;95.50;;;;;;5134849;27;20083;-43
2022/04/18 02:22:15;;;;;;;25.88;15.25;;;8.20;96.00;;;;;;5130994;27;20054;-43
2022/04/18 02:24:41;;;;;;;23.83;14.32;;;8.00;95.50;;;;;;5130824;27;20066;-45
2022/04/18 02:27:06;;;;;;;25.42;15.25;;;8.00;96.10;;;;;;5130962;27;20035;-45
2022/04/18 02:29:33;;;;;;;24.13;14.35;;;8.00;96.20;;;;;;5131182;27;20043;-46
2022/04/18 02:34:43;;;;;;;25.73;15.00;;;7.90;96.20;;;;;;5148555;27;20121;-44
2022/04/18 02:37:09;;;;;;;24.70;15.00;;;7.80;97.20;;;;;;5131074;27;20118;-42
2022/04/18 02:39:34;;;;;;;25.30;14.70;;;7.80;97.00;;;;;;5146819;27;20042;-41
2022/04/18 02:42:00;;;;;;;23.05;14.20;;;7.80;97.00;;;;;;5143646;27;20053;-42
2022/04/18 02:44:26;;;;;;;22.38;14.55;;;7.70;97.50;;;;;;5151600;27;20039;-43
2022/04/18 02:46:51;;;;;;;22.50;15.20;;;7.70;97.30;;;;;;5148128;27;20035;-47
2022/04/18 02:49:17;;;;;;;25.75;15.30;;;7.60;97.10;;;;;;5130709;27;20039;-43
2022/04/18 02:51:43;;;;;;;23.55;14.60;;;7.60;97.20;;;;;;5130643;27;20039;-44
2022/04/18 02:54:08;;;;;;;24.40;15.40;;;7.60;97.20;;;;;;5130983;27;20035;-44
2022/04/18 02:56:34;;;;;;;25.08;15.95;;;7.60;97.20;;;;;;5135094;27;20464;-43
2022/04/18 02:59:00;;;;;;;24.45;15.15;;;7.60;97.20;;;;;;5130563;27;20478;-45
2022/04/18 03:01:25;;;;;;;24.50;15.60;;;7.50;97.20;;;;;;5130727;27;20062;-45
2022/04/18 03:03:51;;;;;;;27.75;15.80;;;7.50;97.00;;;;;;5137219;27;20090;-44
2022/04/18 03:06:16;;;;;;;25.63;15.13;;;7.50;97.00;;;;;;5142421;27;20043;-44
2022/04/18 03:08:42;;;;;;;25.63;15.93;;;7.50;96.90;;;;;;5151157;27;20031;-42
2022/04/18 03:11:09;;;;;;;25.08;15.57;;;7.40;97.30;;;;;;5150522;27;20041;-48
2022/04/18 03:13:37;;;;;;;24.23;15.23;;;7.40;97.20;;;;;;5151422;27;20701;-44
2022/04/18 03:16:04;;;;;;;26.63;14.77;;;7.40;97.50;;;;;;5149044;27;20054;-45
2022/04/18 03:18:30;;;;;;;26.42;15.65;;;7.40;97.60;;;;;;5130166;27;20094;-44
2022/04/18 03:20:57;;;;;;;24.77;15.73;;;7.30;97.70;;;;;;5149836;27;20031;-46
2022/04/18 03:23:23;;;;;;;26.40;15.55;;;7.30;97.40;;;;;;5151638;27;20563;-44
2022/04/18 03:25:48;;;;;;;26.27;15.73;;;7.30;97.60;;;;;;5150878;27;20118;-44
2022/04/18 03:28:15;;;;;;;25.40;15.63;;;7.30;97.80;;;;;;5142141;27;20039;-44
2022/04/18 03:30:41;;;;;;;22.88;15.15;;;7.20;97.40;;;;;;5141544;27;20445;-45
2022/04/18 03:33:07;;;;;;;27.02;16.40;;;7.20;97.60;;;;;;5153834;27;20118;-44
2022/04/18 03:35:33;;;;;;;23.98;15.85;;;7.20;97.80;;;;;;5134301;27;20031;-44
2022/04/18 03:40:43;;;;;;;25.70;15.93;;;7.10;97.90;;;;;;5153674;27;20253;-44
2022/04/18 03:43:09;;;;;;;24.10;15.32;;;7.10;98.60;;;;;;5154791;27;20133;-44
2022/04/18 03:45:34;;;;;;;24.45;15.70;;;7.00;98.50;;;;;;5136829;27;20108;-46
2022/04/18 03:48:00;;;;;;;22.02;14.07;;;7.00;98.60;;;;;;5140924;27;20031;-44
2022/04/18 03:50:26;;;;;;;23.85;15.30;;;7.00;98.40;;;;;;5134052;27;20039;-44
2022/04/18 03:52:52;;;;;;;27.38;16.20;;;7.00;98.30;;;;;;5146809;27;20146;-43
2022/04/18 03:55:18;;;;;;;25.23;15.75;;;7.00;98.60;;;;;;5133789;27;20118;-44
2022/04/18 03:57:44;;;;;;;24.58;15.93;;;6.90;98.20;;;;;;5133498;27;21263;-44
2022/04/18 04:00:11;;;;;;;27.65;15.50;;;6.90;98.80;;;;;;5154768;27;20034;-44
2022/04/18 04:02:37;;;;;;;25.67;15.07;;;6.90;98.60;;;;;;5154115;27;20037;-44
2022/04/18 04:05:03;;;;;;;24.33;15.90;;;6.90;99.10;;;;;;5154628;27;20049;-44
2022/04/18 04:07:29;;;;;;;23.52;16.05;;;6.80;99.10;;;;;;5154248;27;20084;-44
2022/04/18 04:09:55;;;;;;;25.45;15.95;;;6.80;99.20;;;;;;5154112;27;20042;-41
2022/04/18 04:12:25;;;;;;;27.05;16.30;;;6.80;99.40;;;;;;5135596;27;20036;-45
2022/04/18 04:14:54;;;;;;;24.27;15.05;;;6.80;99.20;;;;;;5139904;27;20043;-43
2022/04/18 04:17:23;;;;;;;30.08;15.90;;;6.70;99.30;;;;;;5147704;27;20134;-47
2022/04/18 04:19:50;;;;;;;26.05;16.00;;;6.70;99.10;;;;;;5140834;27;20051;-45
2022/04/18 04:22:15;;;;;;;25.75;16.05;;;6.70;99.50;;;;;;5154356;27;20091;-46
2022/04/18 04:24:41;;;;;;;26.15;16.35;;;6.60;99.50;;;;;;5154268;27;20464;-45
2022/04/18 04:27:07;;;;;;;26.08;15.65;;;6.60;99.60;;;;;;5153722;27;20119;-44
2022/04/18 04:29:33;;;;;;;26.15;15.93;;;6.60;99.60;;;;;;5153822;27;20219;-42
2022/04/18 04:31:59;;;;;;;25.30;15.68;;;6.60;99.60;;;;;;5135211;27;20033;-43
2022/04/18 04:34:25;;;;;;;28.48;16.25;;;6.60;99.50;;;;;;5133055;27;20111;-44
2022/04/18 04:36:50;;;;;;;25.98;16.58;;;6.50;99.60;;;;;;5133008;27;20070;-47
2022/04/18 04:39:17;;;;;;;28.00;16.77;;;6.50;99.60;;;;;;5132939;27;20465;-43
2022/04/18 04:41:43;;;;;;;28.13;16.23;;;6.50;99.90;;;;;;5132375;27;20039;-48
2022/04/18 04:44:08;;;;;;;28.08;16.63;;;6.50;99.70;;;;;;5132237;27;20114;-43
2022/04/18 04:46:35;;;;;;;30.13;15.75;;;6.40;99.70;;;;;;5134683;27;20042;-44
2022/04/18 04:49:00;;;;;;;27.83;15.70;;;6.50;99.90;;;;;;5153258;27;20030;-43
2022/04/18 04:51:26;;;;;;;29.67;17.00;;;6.50;99.90;;;;;;5153489;27;20045;-44
2022/04/18 04:53:52;;;;;;;26.50;15.88;;;6.50;99.90;;;;;;5153541;27;20057;-46
2022/04/18 04:56:17;;;;;;;26.70;16.20;;;6.40;99.90;;;;;;5140474;27;20541;-42
2022/04/18 04:58:43;;;;;;;26.45;16.13;;;6.50;99.90;;;;;;5148932;27;20401;-48
2022/04/18 05:01:09;;;;;;;25.55;15.98;;;6.40;99.90;;;;;;5148717;27;20127;-45
2022/04/18 05:03:35;;;;;;;24.23;15.73;;;6.40;99.90;;;;;;5132501;27;20452;-43
2022/04/18 05:06:01;;;;;;;27.50;16.25;;;6.40;99.90;;;;;;5147075;27;20966;-45
2022/04/18 05:08:26;;;;;;;27.65;16.15;;;6.40;99.90;;;;;;5153424;27;20035;-44
2022/04/18 05:10:59;;;;;;;25.95;16.40;;;6.50;99.90;;;;;;5152618;27;20492;-46
2022/04/18 05:13:25;;;;;;;27.73;16.45;;;6.40;99.90;;;;;;5153192;27;20046;-46
2022/04/18 05:15:51;;;;;;;28.42;17.05;;;6.50;99.90;;;;;;5153178;27;20034;-44
2022/04/18 05:18:16;;;;;;;29.30;16.30;;;6.40;99.90;;;;;;5152712;27;20057;-44
2022/04/18 05:20:42;;;;;;;25.25;15.95;;;6.50;99.90;;;;;;5153165;27;20391;-45
2022/04/18 05:23:08;;;;;;;28.02;16.35;;;6.50;99.90;;;;;;5153368;27;20049;-43
2022/04/18 05:25:33;;;;;;;27.65;16.40;;;6.50;99.90;;;;;;5145196;27;20102;-45
2022/04/18 05:27:59;;;;;;;26.67;16.27;;;6.50;99.90;;;;;;5133783;27;20081;-45
2022/04/18 05:30:25;;;;;;;26.67;15.80;;;6.60;99.90;;;;;;5131824;27;20394;-44
2022/04/18 05:32:50;;;;;;;28.48;16.15;;;6.60;99.90;;;;;;5131969;27;20027;-46
2022/04/18 05:35:16;;;;;;;26.92;15.00;;;6.60;99.90;;;;;;5131525;27;20043;-44
2022/04/18 05:37:42;;;;;;;27.50;17.20;;;6.70;99.90;;;;;;5131747;27;20154;-44
2022/04/18 05:40:08;;;;;;;26.65;15.98;;;6.80;99.90;;;;;;5148617;27;20472;-46
2022/04/18 05:42:35;;;;;;;28.15;16.48;;;6.80;99.90;;;;;;5144790;27;20035;-44
2022/04/18 05:45:00;;;;;;;25.67;15.90;;;6.90;99.90;;;;;;5132261;27;20039;-44
2022/04/18 05:47:26;;;;;;;25.67;15.52;;;6.90;99.90;;;;;;5141426;27;20395;-45
2022/04/18 05:49:52;;;;;;;25.83;16.08;;;7.00;99.90;;;;;;5142254;27;20043;-44
2022/04/18 05:52:18;;;;;;;27.00;15.88;;;7.10;99.90;;;;;;5131551;27;20136;-41
2022/04/18 05:54:43;;;;;;;26.85;15.70;;;7.20;99.90;;;;;;5131450;27;20114;-45
2022/04/18 05:57:09;;;;;;;27.70;15.27;;;7.20;99.90;;;;;;5131692;27;20175;-44
2022/04/18 05:59:35;;;;;;;25.55;16.02;;;7.30;99.90;;;;;;5131420;27;20173;-45
2022/04/18 06:02:01;;;;;;;23.85;14.98;;;7.40;99.90;;;;;;5131485;27;20475;-44
2022/04/18 06:04:26;;;;;;;26.55;14.98;;;7.40;99.90;;;;;;5131336;27;20031;-42
2022/04/18 06:06:52;;;;;;;21.83;13.68;;;7.60;99.90;;;;;;5141481;27;20101;-46
2022/04/18 06:09:18;;;;;;;23.52;15.35;;;7.70;99.10;;;;;;5149942;27;20066;-43
2022/04/18 06:11:44;;;;;;;21.40;13.80;;;7.70;99.20;;;;;;5141196;27;20406;-42
2022/04/18 06:14:09;;;;;;;23.35;13.93;;;7.90;99.20;;;;;;5131008;27;20076;-44
2022/04/18 06:16:35;;;;;;;24.73;14.10;;;7.90;98.70;;;;;;5136132;27;20054;-43
2022/04/18 06:19:01;;;;;;;23.60;14.15;;;8.00;98.50;;;;;;5133595;27;20366;-43
2022/04/18 06:21:26;;;;;;;24.85;13.55;;;8.20;98.70;;;;;;5131177;27;20054;-44
2022/04/18 06:23:52;;;;;;;23.23;14.10;;;8.10;98.90;;;;;;5132998;27;20099;-43
2022/04/18 06:26:18;;;;;;;21.95;13.95;;;8.20;98.70;;;;;;5141825;27;20046;-44
2022/04/18 06:28:44;;;;;;;23.60;14.07;;;8.30;98.90;;;;;;5142440;27;20039;-47
2022/04/18 06:31:09;;;;;;;21.30;14.18;;;8.40;98.80;;;;;;5151772;27;20138;-46
2022/04/18 06:33:35;;;;;;;23.08;14.27;;;8.40;98.50;;;;;;5150641;27;20430;-42
2022/04/18 06:36:01;;;;;;;23.60;14.63;;;8.50;98.60;;;;;;5151601;27;20077;-45
2022/04/18 06:38:28;;;;;;;21.77;14.15;;;8.50;97.90;;;;;;5151493;27;20498;-47
2022/04/18 06:40:56;;;;;;;21.95;14.45;;;8.60;98.40;;;;;;5150914;27;20516;-46
2022/04/18 06:43:22;;;;;;;23.95;14.52;;;8.60;98.70;;;;;;5138195;27;20246;-46
2022/04/18 06:45:48;;;;;;;22.25;14.55;;;8.70;98.70;;;;;;5130669;27;20497;-48
2022/04/18 06:48:14;;;;;;;21.95;14.68;;;8.80;98.30;;;;;;5131818;27;20129;-43
2022/04/18 06:50:40;;;;;;;21.60;13.77;;;8.80;98.10;;;;;;5151613;27;20047;-43
2022/04/18 06:53:05;;;;;;;20.42;13.07;;;9.00;97.70;;;;;;5113457;27;20091;-44
2022/04/18 06:56:58;;;;;;;25.80;14.85;;;9.00;98.40;;;;;;5149129;27;20034;-43
2022/04/18 06:58:17;;;;;;;21.17;14.40;;;9.10;98.60;;;;;;5140091;27;20110;-45
2022/04/18 07:00:42;;;;;;;21.60;13.55;;;9.20;98.50;;;;;;5139413;27;20126;-45
2022/04/18 07:03:08;;;;;;;20.77;13.27;;;9.20;98.40;;;;;;5146080;27;20034;-44
2022/04/18 07:05:34;;;;;;;20.17;13.23;;;9.30;98.20;;;;;;5150578;27;20035;-45
2022/04/18 07:07:59;;;;;;;23.30;13.25;;;9.40;98.70;;;;;;5134799;27;20068;-45
2022/04/18 07:10:25;;;;;;;23.70;14.25;;;9.50;99.10;;;;;;5147446;27;20382;-44
2022/04/18 07:12:51;;;;;;;19.58;12.05;;;9.60;98.60;;;;;;5135063;27;20035;-46
2022/04/18 07:15:16;;;;;;;20.08;12.95;;;9.70;98.80;;;;;;5134769;27;20043;-45
2022/04/18 07:32:19;;;;;;;19.88;12.13;;;9.90;99.60;;;;;;5075867;28;20668;-49
2022/04/18 07:34:47;;;;;;;21.15;12.07;;;10.50;97.60;;;;;;5044295;28;20049;-46
2022/04/18 07:37:13;;;;;;;16.70;11.77;;;10.60;98.00;;;;;;5042922;28;20045;-49
2022/04/18 07:39:39;;;;;;;20.05;11.15;;;10.60;98.20;;;;;;5042812;28;20496;-44
2022/04/18 07:42:05;;;;;;;16.60;10.43;;;10.70;98.00;;;;;;5043931;28;20136;-48
2022/04/18 07:44:31;;;;;;;16.30;9.93;;;10.80;96.90;;;;;;5044223;28;20034;-43
2022/04/18 07:46:57;;;;;;;17.80;10.43;;;10.80;96.50;;;;;;5043960;28;20030;-48
2022/04/18 07:49:23;;;;;;;16.52;9.88;;;11.00;96.20;;;;;;5041535;28;20036;-47
2022/04/18 07:51:48;;;;;;;13.90;9.38;;;10.90;95.90;;;;;;5042029;28;20045;-46
2022/04/18 07:54:17;;;;;;;15.20;9.15;;;11.10;94.90;;;;;;5043322;28;20128;-45
2022/04/18 07:56:43;;;;;;;18.25;9.45;;;11.20;95.20;;;;;;5043485;28;20049;-43
2022/04/18 07:59:10;;;;;;;15.30;8.57;;;11.20;94.90;;;;;;5043982;28;20025;-45
2022/04/18 08:01:36;;;;;;;16.63;9.43;;;11.30;95.60;;;;;;5043243;28;20128;-46
2022/04/18 08:04:02;;;;;;;17.05;9.57;;;11.40;95.30;;;;;;5042778;28;20111;-48
2022/04/18 08:06:29;;;;;;;14.77;9.30;;;11.50;94.80;;;;;;5041312;28;20025;-50
2022/04/18 08:08:55;;;;;;;17.88;10.00;;;11.50;95.90;;;;;;5043696;28;20049;-49
2022/04/18 08:11:21;;;;;;;14.63;9.23;;;11.60;96.20;;;;;;5043585;28;20420;-48
2022/04/18 08:13:48;;;;;;;16.58;9.43;;;11.70;95.00;;;;;;5042907;28;20048;-48
2022/04/18 08:16:14;;;;;;;14.38;9.50;;;11.80;94.90;;;;;;5042704;28;20060;-47
2022/04/18 08:18:44;;;;;;;16.05;9.73;;;11.70;94.70;;;;;;5042840;28;20397;-48
2022/04/18 08:21:17;;;;;;;14.60;9.00;;;11.80;95.20;;;;;;5043328;28;20037;-41
2022/04/18 08:23:45;;;;;;;15.50;9.98;;;12.10;95.10;;;;;;5043421;28;20041;-44
2022/04/18 08:26:11;;;;;;;15.77;9.68;;;12.10;94.50;;;;;;5041452;28;20029;-48
2022/04/18 08:28:38;;;;;;;15.90;9.88;;;12.00;94.80;;;;;;5028303;28;20038;-50
2022/04/18 08:31:04;;;;;;;15.68;9.55;;;12.20;95.60;;;;;;5030119;28;20063;-45
2022/04/18 08:33:30;;;;;;;17.23;10.73;;;12.30;94.50;;;;;;5026629;28;20540;-54
2022/04/18 08:36:00;;;;;;;16.17;9.82;;;12.40;95.50;;;;;;5028192;28;20117;-44
2022/04/18 08:38:26;;;;;;;15.35;9.40;;;12.40;94.70;;;;;;5028720;28;20059;-46
2022/04/18 08:40:56;;;;;;;16.38;9.65;;;12.50;95.70;;;;;;5026954;28;20041;-51
2022/04/18 08:43:22;;;;;;;14.90;9.65;;;12.60;94.30;;;;;;5025059;28;20116;-46
2022/04/18 08:45:49;;;;;;;18.02;9.25;;;12.60;94.80;;;;;;5026931;28;20483;-45
2022/04/18 08:53:47;;;;;;;15.88;8.75;;;13.00;93.50;;;;;;5024229;28;20454;-44
2022/04/18 08:56:13;;;;;;;15.75;8.85;;;13.10;93.80;;;;;;5027841;28;20095;-43
2022/04/18 08:58:40;;;;;;;13.88;8.93;;;13.30;92.80;;;;;;5027200;28;20092;-46
2022/04/18 09:01:07;;;;;;;14.75;9.60;;;13.50;94.70;;;;;;5028104;28;20041;-42
2022/04/18 09:03:34;;;;;;;15.20;9.30;;;13.70;94.90;;;;;;5026627;28;20026;-44
2022/04/18 09:06:08;;;;;;;14.80;9.70;;;13.80;93.70;;;;;;5025202;28;20034;-52
2022/04/18 09:08:41;;;;;;;11.82;8.27;;;14.00;94.60;;;;;;5028374;28;20037;-45
2022/04/18 09:11:07;;;;;;;13.85;8.30;;;14.10;93.10;;;;;;5028710;28;20037;-46
2022/04/18 09:13:33;;;;;;;12.40;7.53;;;14.30;93.60;;;;;;5028741;28;20128;-44
2022/04/18 09:15:59;;;;;;;14.55;8.10;;;14.50;91.80;;;;;;5026986;28;20116;-45
2022/04/18 09:18:26;;;;;;;12.68;7.25;;;14.70;91.50;;;;;;5026482;28;20052;-44
2022/04/18 09:20:56;;;;;;;12.60;7.00;;;14.70;90.50;;;;;;5026018;28;20045;-49
2022/04/18 09:23:30;;;;;;;10.70;6.47;;;14.90;91.20;;;;;;5024761;28;20041;-47
2022/04/18 09:26:08;;;;;;;12.25;7.30;;;15.00;89.90;;;;;;5027323;28;20047;-44
2022/04/18 09:28:42;;;;;;;11.68;6.68;;;15.20;87.00;;;;;;5027877;28;20549;-44
2022/04/18 09:31:09;;;;;;;10.30;6.50;;;15.20;86.60;;;;;;5027831;28;20081;-46
2022/04/18 09:33:37;;;;;;;11.18;6.70;;;15.40;86.70;;;;;;5027943;28;20112;-46
2022/04/18 09:36:08;;;;;;;9.80;6.30;;;15.50;86.60;;;;;;5027230;28;20041;-46
2022/04/18 09:38:44;;;;;;;12.90;6.50;;;15.70;88.10;;;;;;5027739;28;20037;-48
2022/04/18 09:41:12;;;;;;;9.07;5.97;;;15.70;87.30;;;;;;5025815;28;20041;-44
2022/04/18 09:43:49;;;;;;;10.05;5.82;;;15.90;81.70;;;;;;5027330;28;20604;-45
2022/04/18 09:46:16;;;;;;;11.52;5.80;;;15.80;78.90;;;;;;5027816;28;20123;-47
2022/04/18 09:48:47;;;;;;;10.68;5.95;;;16.00;79.80;;;;;;5027345;28;20630;-47
2022/04/18 09:51:15;;;;;;;12.80;6.10;;;15.80;77.70;;;;;;5012049;28;20598;-53
2022/04/18 09:53:44;;;;;;;10.50;5.28;;;16.00;82.50;;;;;;5011710;28;20513;-48
2022/04/18 09:56:22;;;;;;;10.98;6.63;;;16.00;75.90;;;;;;5021486;28;20116;-52
2022/04/18 09:58:48;;;;;;;10.25;5.80;;;16.10;74.80;;;;;;5026074;28;20073;-50
2022/04/18 10:01:14;;;;;;;10.73;5.35;;;16.10;74.10;;;;;;5026586;28;20172;-46
2022/04/18 10:03:41;;;;;;;9.27;5.13;;;16.10;76.00;;;;;;5025829;28;20388;-49
2022/04/18 10:06:08;;;;;;;10.25;5.57;;;16.20;69.00;;;;;;5018990;28;20045;-52
2022/04/18 10:08:35;;;;;;;10.20;4.75;;;16.40;77.00;;;;;;5024365;28;20037;-43
2022/04/18 10:11:02;;;;;;;8.55;5.20;;;16.40;69.60;;;;;;5024793;28;20044;-49
2022/04/18 10:13:30;;;;;;;8.18;4.00;;;16.30;67.60;;;;;;5025280;28;20124;-46
2022/04/18 10:16:00;;;;;;;8.75;4.78;;;16.40;62.90;;;;;;5024533;28;20025;-50
2022/04/18 10:18:26;;;;;;;8.60;4.80;;;16.40;63.50;;;;;;5023317;28;20109;-44
2022/04/18 10:21:07;;;;;;;7.88;4.00;;;16.50;63.70;;;;;;5026329;28;20076;-48
2022/04/18 10:23:41;;;;;;;9.45;4.88;;;16.50;61.10;;;;;;5024005;28;20037;-46
2022/04/18 10:26:25;;;;;;;;;;;16.70;63.70;;;;;;5026013;28;20559;-43
2022/04/18 10:28:53;;;;;;;7.45;3.50;;;16.70;57.60;;;;;;5025576;28;19923;-43
2022/04/18 10:31:25;;;;;;;7.13;3.42;;;17.10;60.50;;;;;;5025219;28;20054;-44
2022/04/18 10:33:51;;;;;;;7.65;3.83;;;17.10;58.20;;;;;;5025899;28;20512;-49
2022/04/18 10:36:35;;;;;;;6.10;3.78;;;17.20;62.10;;;;;;5025418;28;20037;-45
2022/04/18 10:39:04;;;;;;;6.85;3.45;;;17.20;57.20;;;;;;5025879;28;20107;-45
2022/04/18 10:41:38;;;;;;;9.18;3.95;;;17.30;57.80;;;;;;5022533;28;20516;-44
2022/04/18 10:44:12;;;;;;;5.35;3.30;;;17.40;58.00;;;;;;5023184;28;20045;-44
2022/04/18 10:46:43;;;;;;;5.40;2.63;;;17.50;59.50;;;;;;5023532;28;20385;-46
2022/04/18 10:49:18;;;;;;;8.05;3.30;;;17.50;55.40;;;;;;5025277;28;20095;-49
2022/04/18 10:51:46;;;;;;;7.75;3.70;;;17.50;55.10;;;;;;5025048;28;20049;-49
2022/04/18 10:54:25;;;;;;;6.07;3.00;;;17.50;56.10;;;;;;5025693;28;20065;-44
2022/04/18 10:56:52;;;;;;;4.63;2.70;;;17.50;54.60;;;;;;5025644;28;20048;-48
2022/04/18 10:59:20;;;;;;;5.25;2.90;;;17.50;50.30;;;;;;5024291;28;20040;-47
2022/04/18 11:01:46;;;;;;;5.97;3.17;;;17.70;55.00;;;;;;5021918;28;20092;-51
2022/04/18 11:04:12;;;;;;;6.45;3.92;;;17.90;53.70;;;;;;5019574;28;20885;-48
2022/04/18 11:06:39;;;;;;;7.53;3.60;;;18.20;56.30;;;;;;5024429;28;20128;-46
2022/04/18 11:09:07;;;;;;;5.55;3.17;;;18.30;56.90;;;;;;5022879;28;20045;-51
2022/04/18 11:12:05;;;;;;;5.13;2.78;;;18.40;56.50;;;;;;5023500;28;20099;-47
2022/04/18 11:14:45;;;;;;;5.30;2.90;;;18.60;52.10;;;;;;5021194;28;20111;-47
2022/04/18 11:17:13;;;;;;;5.85;3.60;;;18.50;50.60;;;;;;5020696;28;20117;-44
2022/04/18 11:19:43;;;;;;;5.95;3.50;;;18.60;54.50;;;;;;5024258;28;20128;-42
2022/04/18 11:22:17;;;;;;;6.82;4.10;;;18.50;53.20;;;;;;5021036;28;20046;-45
2022/04/18 11:24:51;;;;;;;7.30;3.45;;;18.50;52.20;;;;;;5023151;28;20033;-49
2022/04/18 11:27:18;;;;;;;6.60;2.92;;;18.80;54.30;;;;;;5023292;28;20052;-47
2022/04/18 11:29:51;;;;;;;4.85;3.00;;;18.90;49.60;;;;;;5023754;28;20492;-44
2022/04/18 11:32:21;;;;;;;6.75;2.90;;;18.90;48.50;;;;;;5023729;28;20420;-48
2022/04/18 11:34:49;;;;;;;5.60;2.95;;;19.20;51.10;;;;;;5023338;28;20030;-46
2022/04/18 11:37:22;;;;;;;6.53;2.53;;;19.40;52.80;;;;;;5024278;28;20040;-49
2022/04/18 11:39:50;;;;;;;5.35;2.80;;;19.20;47.60;;;;;;5022911;28;20392;-48
2022/04/18 11:42:19;;;;;;;6.70;3.40;;;19.60;50.50;;;;;;5024529;28;20053;-52
2022/04/18 11:44:46;;;;;;;6.45;3.63;;;19.70;52.60;;;;;;5022312;28;20593;-49
2022/04/18 11:47:20;;;;;;;6.22;2.80;;;19.50;48.80;;;;;;5023448;28;20056;-50
2022/04/18 11:49:46;;;;;;;5.47;2.92;;;19.60;48.60;;;;;;5023261;28;20045;-45
2022/04/18 11:52:26;;;;;;;5.85;3.10;;;19.60;48.40;;;;;;5023510;28;20048;-53
2022/04/18 11:55:02;;;;;;;6.47;3.45;;;19.90;50.20;;;;;;5023861;28;20108;-50
2022/04/18 11:57:31;;;;;;;5.85;3.30;;;19.80;47.60;;;;;;5024340;28;20539;-52
2022/04/18 11:59:58;;;;;;;7.68;3.58;;;19.90;48.80;;;;;;5022638;28;20045;-49
2022/04/18 12:08:07;;;;;;;7.13;3.70;;;19.90;48.90;;;;;;5023000;28;20131;-52
2022/04/18 12:10:35;;;;;;;6.40;3.38;;;20.20;49.70;;;;;;5028661;28;20036;-48
2022/04/18 12:13:11;;;;;;;6.00;3.70;;;20.50;49.00;;;;;;5024893;28;20061;-46
2022/04/18 12:15:37;;;;;;;6.85;3.88;;;20.60;48.80;;;;;;5024727;28;20080;-46
2022/04/18 12:18:17;;;;;;;6.68;3.40;;;20.70;49.00;;;;;;5028056;28;20048;-51
2022/04/18 12:20:48;;;;;;;5.28;3.65;;;20.60;46.80;;;;;;5028370;28;20042;-50
2022/04/18 12:23:20;;;;;;;6.25;3.72;;;20.90;48.70;;;;;;5028930;28;20143;-52
2022/04/18 12:25:52;;;;;;;6.75;3.72;;;20.70;45.20;;;;;;5030462;28;20094;-46
2022/04/18 12:28:29;;;;;;;6.82;3.42;;;21.00;45.80;;;;;;5030882;28;20041;-42
2022/04/18 12:30:56;;;;;;;6.07;3.42;;;21.20;45.50;;;;;;5032533;28;20128;-45
2022/04/18 12:33:26;;;;;;;6.40;3.63;;;21.00;45.60;;;;;;5032906;28;20052;-45
2022/04/18 12:35:57;;;;;;;6.40;2.92;;;21.20;47.50;;;;;;5032536;28;20112;-47
2022/04/18 12:38:34;;;;;;;6.85;3.40;;;20.90;43.90;;;;;;5032710;28;20609;-45
2022/04/18 12:41:00;;;;;;;5.60;3.20;;;21.10;45.90;;;;;;5032514;28;20037;-46
2022/04/18 12:43:28;;;;;;;4.75;2.80;;;21.30;47.40;;;;;;5032577;28;20048;-51
2022/04/18 12:46:09;;;;;;;5.82;3.00;;;21.20;45.80;;;;;;5032464;28;20385;-48
2022/04/18 12:48:37;;;;;;;4.90;2.80;;;21.30;45.00;;;;;;5032264;28;20041;-48
2022/04/18 12:51:04;;;;;;;4.43;2.60;;;21.60;45.90;;;;;;5032440;28;20068;-48
2022/04/18 12:53:50;;;;;;;5.15;2.80;;;22.10;45.80;;;;;;5032575;28;20128;-49
2022/04/18 12:56:20;;;;;;;4.88;2.80;;;21.90;42.60;;;;;;5032239;28;20037;-46
2022/04/18 12:59:01;;;;;;;4.53;2.80;;;22.00;44.80;;;;;;5032411;28;20122;-47
2022/04/18 13:01:39;;;;;;;5.63;3.10;;;22.50;44.00;;;;;;5032152;28;20524;-46
2022/04/18 13:04:27;;;;;;;5.55;2.80;;;22.40;43.50;;;;;;5031969;28;20113;-47
2022/04/18 13:06:57;;;;;;;4.75;2.85;;;22.00;44.10;;;;;;5032716;28;20069;-47
2022/04/18 13:09:23;;;;;;;5.35;3.03;;;21.90;43.80;;;;;;5032763;28;20037;-52
2022/04/18 13:11:58;;;;;;;6.00;3.30;;;21.80;43.90;;;;;;5032390;28;20049;-48
2022/04/18 13:14:24;;;;;;;4.63;3.13;;;22.00;43.60;;;;;;5031888;28;20045;-48
2022/04/18 13:17:08;;;;;;;6.28;3.10;;;22.30;44.00;;;;;;5030624;28;20188;-45